Time;durP1;ratioP1;P1;durP2;ratioP2;P2;SDS_P1;SDS_P2;PMS_P1;PMS_P2;Temp;Humidity;BMP_temperature;BMP_pressure;BME280_temperature;BME280_humidity;BME280_pressure;Samples;Min_cycle;Max_cycle;Signal;HPM_P1;HPM_P2
2023/01/12 00:01:53;;;;;;;4.20;0.90;;;;;;;7.17;74.56;97015.66;6245691;23;20112;-74
2023/01/12 00:04:21;;;;;;;3.97;1.27;;;;;;;7.17;75.54;97020.84;6245611;23;20030;-75
2023/01/12 00:06:50;;;;;;;4.88;1.10;;;;;;;7.16;74.46;97020.97;6245828;23;20054;-74
2023/01/12 00:09:17;;;;;;;5.03;1.85;;;;;;;7.18;74.92;97013.88;6244471;23;20074;-74
2023/01/12 00:11:45;;;;;;;3.92;0.90;;;;;;;7.16;73.62;97015.78;6245761;23;20020;-74
2023/01/12 00:14:13;;;;;;;5.25;0.85;;;;;;;7.16;74.64;97008.00;6245460;23;20027;-74
2023/01/12 00:16:40;;;;;;;4.57;0.73;;;;;;;7.16;73.99;97005.41;6245651;23;20020;-74
2023/01/12 00:19:10;;;;;;;4.07;1.50;;;;;;;7.13;73.11;97016.09;6245038;23;20098;-74
2023/01/12 00:21:58;;;;;;;4.28;1.25;;;;;;;7.13;74.57;97011.72;6245876;23;20355;-74
2023/01/12 00:24:27;;;;;;;3.00;0.80;;;;;;;7.12;73.54;97015.28;6245516;23;20020;-74
2023/01/12 00:26:56;;;;;;;1.80;0.77;;;;;;;7.13;73.76;97008.31;6245040;23;20078;-74
2023/01/12 00:29:25;;;;;;;8.43;1.45;;;;;;;7.15;72.48;97019.34;6244641;23;20020;-74
2023/01/12 00:31:53;;;;;;;4.65;1.10;;;;;;;7.17;74.36;97022.59;6245626;23;20078;-74
2023/01/12 00:34:21;;;;;;;5.18;2.10;;;;;;;7.20;75.11;97020.53;6245653;23;20380;-74
2023/01/12 00:36:51;;;;;;;4.97;1.02;;;;;;;7.19;71.91;97023.25;6245513;23;20047;-74
2023/01/12 00:39:19;;;;;;;3.83;0.90;;;;;;;7.18;73.37;97029.44;6244313;23;20502;-74
2023/01/12 00:47:18;;;;;;;3.58;0.98;;;;;;;7.13;71.76;97036.88;6245143;23;20016;-74
2023/01/12 00:49:47;;;;;;;3.00;0.95;;;;;;;7.12;73.26;97035.22;6243995;23;20020;-74
2023/01/12 00:52:18;;;;;;;6.85;1.10;;;;;;;7.13;73.41;97024.69;6245337;23;20095;-74
2023/01/12 00:55:01;;;;;;;3.03;0.90;;;;;;;7.12;72.00;97022.25;6245428;23;20020;-74
2023/01/12 00:57:29;;;;;;;3.10;0.88;;;;;;;7.13;73.37;97008.31;6245272;23;20062;-75
2023/01/12 00:59:57;;;;;;;5.10;0.93;;;;;;;7.12;71.96;97019.66;6244246;23;20099;-74
2023/01/12 01:02:26;;;;;;;4.00;1.10;;;;;;;7.12;72.64;97017.06;6255847;23;20024;-74
2023/01/12 01:04:53;;;;;;;3.22;0.93;;;;;;;7.14;72.30;97025.50;6261811;23;20022;-74
2023/01/12 01:07:22;;;;;;;4.25;1.10;;;;;;;7.14;73.42;97018.53;6250274;23;20024;-74
2023/01/12 01:09:51;;;;;;;5.50;1.50;;;;;;;7.15;72.66;97024.53;6244574;23;20020;-74
2023/01/12 01:12:19;;;;;;;6.65;1.42;;;;;;;7.15;71.82;97019.34;6245634;23;20024;-74
2023/01/12 01:14:47;;;;;;;8.63;2.13;;;;;;;7.16;71.80;97032.16;6245556;23;20020;-74
2023/01/12 01:17:14;;;;;;;5.30;1.75;;;;;;;7.15;72.13;97024.53;6244956;23;20031;-74
2023/01/12 01:19:42;;;;;;;5.00;1.15;;;;;;;7.12;70.78;97023.06;6244381;23;20487;-74
2023/01/12 01:22:11;;;;;;;2.75;0.90;;;;;;;7.12;71.00;97023.06;6245554;23;20023;-74
2023/01/12 01:24:40;;;;;;;5.38;1.10;;;;;;;7.14;71.53;97022.91;6245145;23;20020;-74
2023/01/12 01:27:07;;;;;;;7.40;2.25;;;;;;;7.15;70.85;97035.75;6245938;23;20102;-74
2023/01/12 01:29:35;;;;;;;7.32;1.35;;;;;;;7.18;71.79;97032.03;6245650;23;20025;-74
2023/01/12 01:32:03;;;;;;;5.18;1.00;;;;;;;7.20;70.24;97032.69;6246419;23;20020;-74
2023/01/12 01:34:30;;;;;;;1.98;0.75;;;;;;;7.23;70.70;97034.97;6245329;23;20055;-74
2023/01/12 01:36:58;;;;;;;13.73;2.25;;;;;;;7.26;71.66;97042.47;6245507;23;20026;-74
2023/01/12 01:39:26;;;;;;;3.63;0.77;;;;;;;7.29;71.42;97042.16;6244408;23;20083;-74
2023/01/12 01:41:55;;;;;;;1.52;0.65;;;;;;;7.29;72.35;97026.59;6245003;23;20035;-75
2023/01/12 01:44:52;;;;;;;4.47;0.95;;;;;;;7.32;70.71;97031.47;6245180;23;20062;-74
2023/01/12 01:47:34;;;;;;;11.40;1.77;;;;;;;7.30;70.14;97033.41;6245087;23;20411;-74
2023/01/12 01:50:12;;;;;;;2.78;1.00;;;;;;;7.32;69.95;97030.66;6243742;23;20047;-75
2023/01/12 01:52:42;;;;;;;5.85;1.52;;;;;;;7.31;70.10;97023.88;6245209;23;20052;-74
2023/01/12 01:55:13;;;;;;;1.38;0.77;;;;;;;7.31;69.44;97014.28;6245220;23;20062;-74
2023/01/12 01:57:46;;;;;;;5.47;0.80;;;;;;;7.32;70.92;97018.50;6244440;23;20035;-74
2023/01/12 02:00:14;;;;;;;5.50;1.08;;;;;;;7.31;70.28;97018.69;6244928;23;20031;-74
2023/01/12 02:02:44;;;;;;;3.30;0.93;;;;;;;7.32;70.87;97021.09;6244675;23;20099;-74
2023/01/12 02:05:14;;;;;;;7.28;1.05;;;;;;;7.33;69.73;97027.13;6245161;23;20024;-74
2023/01/12 02:07:41;;;;;;;3.55;0.82;;;;;;;7.31;69.64;97035.06;6244614;23;20024;-74
2023/01/12 02:10:10;;;;;;;4.10;0.93;;;;;;;7.29;69.12;97031.78;6244714;23;20095;-74
2023/01/12 02:18:18;;;;;;;8.13;1.75;;;;;;;7.32;68.93;97015.91;6243986;23;20024;-74
2023/01/12 02:20:53;;;;;;;3.50;1.02;;;;;;;7.29;69.88;97005.84;6253296;23;20098;-74
2023/01/12 02:23:48;;;;;;;3.85;0.80;;;;;;;7.27;68.04;97009.56;6261273;23;20046;-74
2023/01/12 02:26:53;;;;;;;2.08;0.73;;;;;;;7.28;68.44;97019.78;6258566;23;20056;-74
2023/01/12 02:29:52;;;;;;;2.13;0.65;;;;;;;7.26;67.98;97008.75;6244493;23;20023;-74
2023/01/12 02:32:31;;;;;;;4.82;0.88;;;;;;;7.25;68.24;97017.47;6214182;23;20020;-74
2023/01/12 02:35:10;;;;;;;4.25;1.38;;;;;;;7.23;69.59;97011.63;6244802;23;20091;-74
2023/01/12 02:37:45;;;;;;;3.38;0.85;;;;;;;7.23;69.18;97009.03;6245954;23;20024;-74
2023/01/12 02:40:21;;;;;;;3.38;0.68;;;;;;;7.24;67.41;97000.31;6246616;23;20016;-75
2023/01/12 02:42:58;;;;;;;6.90;1.80;;;;;;;7.27;70.01;96991.41;6246858;23;20020;-74
2023/01/12 02:45:34;;;;;;;5.80;0.93;;;;;;;7.28;68.12;96983.47;6246647;23;20070;-74
2023/01/12 02:48:09;;;;;;;4.65;0.60;;;;;;;7.31;70.80;96987.53;6245796;23;20103;-74
2023/01/12 02:50:50;;;;;;;2.85;1.10;;;;;;;7.35;70.04;96983.69;6246945;23;20031;-75
2023/01/12 02:53:23;;;;;;;5.97;0.93;;;;;;;7.36;69.50;96978.31;6246383;23;20024;-74
2023/01/12 02:55:52;;;;;;;2.70;0.73;;;;;;;7.36;69.70;96973.13;6246586;23;20052;-74
2023/01/12 02:58:23;;;;;;;5.82;0.70;;;;;;;7.38;68.36;96983.34;6245667;23;20026;-75
2023/01/12 03:00:54;;;;;;;2.97;0.77;;;;;;;7.38;68.03;96973.78;6246735;23;20016;-74
2023/01/12 03:03:24;;;;;;;2.47;0.80;;;;;;;7.35;67.20;96974.09;6246318;23;20468;-74
2023/01/12 03:05:55;;;;;;;4.03;0.95;;;;;;;7.38;66.87;96963.41;6246640;23;20016;-74
2023/01/12 03:08:27;;;;;;;4.30;1.48;;;;;;;7.38;66.94;96960.00;6245069;23;20036;-74
2023/01/12 03:11:11;;;;;;;2.97;0.77;;;;;;;7.36;66.30;96959.34;6246055;23;20514;-74
2023/01/12 03:13:43;;;;;;;4.63;1.13;;;;;;;7.32;66.00;96953.63;6246272;23;20024;-74
2023/01/12 03:16:15;;;;;;;3.43;0.50;;;;;;;7.31;65.92;96946.81;6246386;23;20028;-74
2023/01/12 03:18:49;;;;;;;2.95;0.90;;;;;;;7.32;68.19;96943.25;6245344;23;20024;-74
2023/01/12 03:21:25;;;;;;;3.17;0.90;;;;;;;7.33;66.04;96936.28;6246111;23;20476;-74
2023/01/12 03:23:59;;;;;;;3.42;1.10;;;;;;;7.33;67.85;96929.31;6246272;23;20020;-74
2023/01/12 03:26:29;;;;;;;4.55;0.90;;;;;;;7.35;67.18;96932.56;6232998;22;20162;-73
2023/01/12 03:29:03;;;;;;;7.18;0.98;;;;;;;7.35;69.19;96921.38;6215109;23;20381;-73
2023/01/12 03:31:32;;;;;;;3.33;0.77;;;;;;;7.33;67.22;96929.31;6215940;23;20020;-73
2023/01/12 03:34:01;;;;;;;2.83;0.80;;;;;;;7.36;67.97;96925.59;6215467;23;20079;-73
2023/01/12 03:36:39;;;;;;;3.13;1.27;;;;;;;7.38;66.16;96919.28;6225125;23;20024;-73
2023/01/12 03:39:14;;;;;;;3.38;1.30;;;;;;;7.39;69.56;96917.50;6245148;23;20028;-73
2023/01/12 03:41:52;;;;;;;4.10;0.93;;;;;;;7.40;69.37;96917.34;6246348;23;20023;-73
2023/01/12 03:44:27;;;;;;;3.53;1.00;;;;;;;7.41;68.75;96925.94;6246206;23;20027;-73
2023/01/12 03:47:01;;;;;;;6.22;1.17;;;;;;;7.38;66.13;96932.25;6251413;23;20024;-73
2023/01/12 03:49:35;;;;;;;3.40;0.77;;;;;;;7.40;68.66;96939.91;6263412;23;20020;-72
2023/01/12 03:52:05;;;;;;;6.75;1.95;;;;;;;7.40;68.54;96939.91;6255352;23;20414;-73
2023/01/12 03:54:36;;;;;;;3.42;0.70;;;;;;;7.41;69.94;96937.16;6246952;23;20020;-73
2023/01/12 03:57:04;;;;;;;4.63;0.70;;;;;;;7.38;68.00;96932.25;6245734;23;20460;-73
2023/01/12 03:59:32;;;;;;;7.28;1.30;;;;;;;7.37;67.22;96935.84;6245357;23;20038;-73
2023/01/12 04:02:00;;;;;;;1.95;0.75;;;;;;;7.36;67.41;96939.38;6246014;23;20027;-73
2023/01/12 04:04:27;;;;;;;4.30;1.23;;;;;;;7.35;66.53;96937.78;6246084;23;20368;-73
2023/01/12 04:06:56;;;;;;;5.32;1.10;;;;;;;7.34;66.42;96941.31;6245979;23;20404;-73
2023/01/12 04:09:25;;;;;;;0.93;0.63;;;;;;;7.36;68.51;96930.78;6245310;23;20099;-73
2023/01/12 04:14:47;;;;;;;3.97;1.10;;;;;;;7.38;66.95;96932.25;6157282;23;20024;-73
2023/01/12 04:17:15;;;;;;;5.47;1.30;;;;;;;7.38;67.87;96927.06;6245236;23;20423;-73
2023/01/12 04:19:43;;;;;;;3.35;0.90;;;;;;;7.38;66.86;96921.88;6244817;23;20020;-73
2023/01/12 04:25:00;;;;;;;6.45;1.10;;;;;;;7.40;66.75;96919.94;6245525;23;20024;-73
2023/01/12 04:27:27;;;;;;;6.03;0.57;;;;;;;7.36;65.26;96929.00;6245082;23;20027;-72
2023/01/12 04:29:55;;;;;;;3.20;0.68;;;;;;;7.32;64.92;96921.69;6244824;23;20364;-73
2023/01/12 04:32:22;;;;;;;3.22;1.10;;;;;;;7.31;65.44;96923.47;6245717;23;20055;-73
2023/01/12 04:34:50;;;;;;;4.90;1.15;;;;;;;7.33;66.47;96921.53;6245253;23;20024;-74
2023/01/12 04:37:19;;;;;;;3.55;2.03;;;;;;;7.35;65.74;96922.19;6245590;23;20027;-74
2023/01/12 04:39:46;;;;;;;3.28;0.88;;;;;;;7.34;64.79;96923.16;6245052;23;20353;-73
2023/01/12 04:44:55;;;;;;;5.82;0.95;;;;;;;7.34;66.46;96914.56;6244042;23;20058;-73
2023/01/12 04:47:23;;;;;;;3.33;1.10;;;;;;;7.32;67.72;96917.28;6245375;23;20020;-73
2023/01/12 04:49:50;;;;;;;5.10;1.58;;;;;;;7.28;66.59;96923.78;6244542;23;20024;-74
2023/01/12 04:52:19;;;;;;;4.18;1.25;;;;;;;7.25;66.01;96916.28;6245376;23;20372;-73
2023/01/12 04:54:47;;;;;;;5.30;1.20;;;;;;;7.24;65.74;96912.06;6245360;23;20027;-73
2023/01/12 04:57:14;;;;;;;4.78;0.82;;;;;;;7.21;65.25;96920.16;6245241;23;20024;-73
2023/01/12 04:59:42;;;;;;;4.78;0.88;;;;;;;7.20;66.04;96918.53;6243927;23;20016;-73
2023/01/12 05:02:09;;;;;;;2.97;0.98;;;;;;;7.20;65.87;96903.78;6245244;23;20016;-73
2023/01/12 05:04:37;;;;;;;6.90;1.00;;;;;;;7.23;67.74;96897.47;6244932;23;20472;-73
2023/01/12 05:07:04;;;;;;;3.53;0.77;;;;;;;7.22;65.98;96895.84;6245058;23;20032;-73
2023/01/12 05:12:19;;;;;;;7.40;1.58;;;;;;;7.22;67.54;96895.84;6245304;23;20081;-73
2023/01/12 05:14:46;;;;;;;4.95;1.17;;;;;;;7.22;67.40;96886.28;6245318;23;20091;-73
2023/01/12 05:17:14;;;;;;;3.65;1.20;;;;;;;7.24;68.14;96878.34;6244890;23;20028;-73
2023/01/12 05:19:41;;;;;;;5.72;2.08;;;;;;;7.26;68.34;96879.00;6243936;23;20016;-73
2023/01/12 05:22:09;;;;;;;6.68;1.48;;;;;;;7.27;67.83;96872.03;6244532;23;20472;-75
2023/01/12 05:24:37;;;;;;;3.53;0.90;;;;;;;7.29;68.16;96870.91;6245089;23;20051;-75
2023/01/12 05:27:05;;;;;;;4.05;1.27;;;;;;;7.30;69.07;96882.91;6243583;23;20083;-74
2023/01/12 05:29:32;;;;;;;2.70;0.90;;;;;;;7.29;68.03;96878.69;6243632;23;20042;-74
2023/01/12 05:32:00;;;;;;;3.50;1.08;;;;;;;7.28;68.22;96873.66;6244458;23;20027;-74
2023/01/12 05:34:27;;;;;;;5.50;1.58;;;;;;;7.27;68.40;96882.41;6244642;23;20024;-74
2023/01/12 05:36:55;;;;;;;4.35;1.00;;;;;;;7.23;67.35;96867.13;6245003;23;20020;-73
2023/01/12 05:39:22;;;;;;;6.10;1.25;;;;;;;7.20;67.52;96883.03;6243630;23;20027;-74
2023/01/12 05:44:37;;;;;;;3.45;0.90;;;;;;;7.20;67.25;96880.44;6244890;23;20020;-74
2023/01/12 05:47:04;;;;;;;3.85;1.00;;;;;;;7.21;67.52;96873.44;6244783;23;20021;-74
2023/01/12 05:49:32;;;;;;;3.83;1.00;;;;;;;7.20;66.56;96872.63;6243497;23;20020;-74
2023/01/12 05:51:59;;;;;;;5.72;1.30;;;;;;;7.20;68.45;96866.66;6244391;23;20031;-74
2023/01/12 05:54:27;;;;;;;5.43;1.10;;;;;;;7.20;69.32;96856.28;6244882;23;20020;-75
2023/01/12 05:56:56;;;;;;;3.08;1.48;;;;;;;7.22;69.97;96862.13;6248239;23;20044;-74
2023/01/12 05:59:23;;;;;;;6.97;1.15;;;;;;;7.23;68.39;96861.13;6245682;23;20020;-75
2023/01/12 06:01:51;;;;;;;4.97;1.13;;;;;;;7.23;67.99;96855.94;6245878;23;20020;-74
2023/01/12 06:04:18;;;;;;;4.00;1.00;;;;;;;7.26;68.83;96849.63;6244700;23;20020;-74
2023/01/12 06:06:47;;;;;;;6.20;1.30;;;;;;;7.30;69.08;96866.53;6244512;23;20028;-75
2023/01/12 06:09:16;;;;;;;5.20;2.10;;;;;;;7.32;68.91;96860.22;6244226;23;20024;-74
2023/01/12 06:14:30;;;;;;;6.78;1.20;;;;;;;7.32;69.29;96870.59;6244455;23;20494;-75
2023/01/12 06:16:57;;;;;;;3.45;1.02;;;;;;;7.34;68.14;96862.66;6244539;23;20020;-75
2023/01/12 06:19:25;;;;;;;3.53;1.23;;;;;;;7.36;69.08;96864.13;6243584;23;20020;-75
2023/01/12 06:21:54;;;;;;;5.40;1.40;;;;;;;7.35;69.41;96865.09;6244740;23;20022;-75
2023/01/12 06:24:21;;;;;;;7.68;1.83;;;;;;;7.37;69.25;96865.75;6244268;23;20111;-75
2023/01/12 06:26:49;;;;;;;5.70;1.13;;;;;;;7.39;69.48;96856.03;6244437;23;20024;-75
2023/01/12 06:29:16;;;;;;;9.13;1.73;;;;;;;7.39;69.43;96861.22;6243727;23;20042;-75
2023/01/12 06:31:45;;;;;;;4.97;1.35;;;;;;;7.37;68.56;96852.78;6244805;23;20020;-75
2023/01/12 06:34:13;;;;;;;7.43;1.70;;;;;;;7.38;69.13;96851.00;6260504;23;20051;-74
2023/01/12 06:36:41;;;;;;;6.47;1.02;;;;;;;7.37;68.18;96847.59;6257505;23;20027;-75
2023/01/12 06:39:10;;;;;;;5.20;0.85;;;;;;;7.36;67.47;96845.97;6245010;23;20026;-73
2023/01/12 06:44:23;;;;;;;3.20;1.20;;;;;;;7.38;67.76;96838.03;6244869;23;20020;-74
2023/01/12 06:46:52;;;;;;;4.55;1.17;;;;;;;7.36;67.13;96835.56;6244140;23;20472;-74
2023/01/12 06:49:20;;;;;;;5.63;1.20;;;;;;;7.35;67.00;96826.19;6243321;23;20500;-75
2023/01/12 06:51:47;;;;;;;6.70;1.10;;;;;;;7.36;68.40;96845.16;6244369;23;20460;-76
2023/01/12 06:54:15;;;;;;;3.83;1.00;;;;;;;7.38;68.65;96841.41;6244773;23;20020;-75
2023/01/12 06:56:45;;;;;;;5.82;1.42;;;;;;;7.39;68.45;96831.84;6241214;23;20035;-75
2023/01/12 06:59:12;;;;;;;5.35;1.10;;;;;;;7.38;68.32;96844.03;6243332;23;20021;-75
2023/01/12 07:01:41;;;;;;;7.22;1.35;;;;;;;7.39;66.33;96847.41;6243160;23;20072;-76
2023/01/12 07:04:10;;;;;;;6.65;1.05;;;;;;;7.38;67.43;96849.22;6243497;23;20031;-76
2023/01/12 07:06:37;;;;;;;4.57;1.33;;;;;;;7.40;67.23;96852.47;6243163;23;20028;-75
2023/01/12 07:09:05;;;;;;;8.25;1.92;;;;;;;7.43;68.20;96841.78;6242274;23;20496;-75
2023/01/12 07:11:32;;;;;;;4.45;1.25;;;;;;;7.45;68.01;96840.81;6243026;23;20017;-76
2023/01/12 07:14:00;;;;;;;6.82;1.13;;;;;;;7.43;67.73;96846.16;6243465;23;20020;-76
2023/01/12 07:16:27;;;;;;;4.75;1.23;;;;;;;7.41;66.85;96848.91;6243174;23;20047;-75
2023/01/12 07:18:55;;;;;;;6.72;1.13;;;;;;;7.43;67.66;96841.78;6243310;23;20027;-74
2023/01/12 07:21:24;;;;;;;5.07;0.90;;;;;;;7.45;66.10;96833.81;6243774;23;20115;-75
2023/01/12 07:23:51;;;;;;;5.18;1.25;;;;;;;7.48;67.21;96830.09;6244374;23;20023;-75
2023/01/12 07:26:19;;;;;;;2.70;0.80;;;;;;;7.47;66.18;96824.09;6245749;23;20031;-76
2023/01/12 07:28:46;;;;;;;4.43;0.90;;;;;;;7.48;67.70;96832.69;6244417;23;20024;-76
2023/01/12 07:31:14;;;;;;;2.53;0.77;;;;;;;7.47;66.47;96837.09;6245382;23;20047;-75
2023/01/12 07:33:41;;;;;;;3.45;1.15;;;;;;;7.45;64.95;96835.63;6245376;23;20016;-76
2023/01/12 07:36:09;;;;;;;3.67;0.88;;;;;;;7.45;65.12;96838.22;6245788;23;20349;-75
2023/01/12 07:38:38;;;;;;;5.18;1.20;;;;;;;7.43;65.77;96836.59;6244394;23;20098;-76
2023/01/12 07:42:21;;;;;;;5.10;0.70;;;;;;;7.42;66.22;96834.16;6245572;23;20016;-76
2023/01/12 07:43:53;;;;;;;5.15;0.90;;;;;;;7.42;66.71;96829.78;6245207;23;20020;-76
2023/01/12 07:46:20;;;;;;;2.85;1.08;;;;;;;7.39;65.31;96835.28;6245010;23;20023;-76
2023/01/12 07:48:48;;;;;;;3.47;1.05;;;;;;;7.35;64.80;96836.56;6244873;23;20020;-75
2023/01/12 07:51:15;;;;;;;4.93;1.10;;;;;;;7.35;65.18;96844.34;6245637;23;20027;-75
2023/01/12 07:53:44;;;;;;;5.72;1.75;;;;;;;7.34;64.34;96842.69;6245443;23;20491;-75
2023/01/12 07:56:14;;;;;;;4.50;1.10;;;;;;;7.32;64.26;96831.66;6245394;23;20026;-75
2023/01/12 07:58:42;;;;;;;5.93;1.05;;;;;;;7.32;64.08;96829.06;6244508;23;20115;-75
2023/01/12 08:01:09;;;;;;;5.03;1.92;;;;;;;7.33;65.02;96838.50;6245035;23;20558;-75
2023/01/12 08:03:38;;;;;;;5.32;1.17;;;;;;;7.33;64.64;96840.28;6245451;23;20020;-75
2023/01/12 08:06:06;;;;;;;3.72;0.80;;;;;;;7.34;65.81;96837.50;6244890;23;20028;-75
2023/01/12 08:08:34;;;;;;;15.35;1.98;;;;;;;7.37;65.14;96841.59;6245001;23;20020;-76
2023/01/12 08:11:04;;;;;;;3.15;1.15;;;;;;;7.38;64.79;96831.03;6245149;23;20503;-74
2023/01/12 08:13:31;;;;;;;4.97;1.05;;;;;;;7.36;64.17;96830.38;6244602;23;20358;-75
2023/01/12 08:16:05;;;;;;;3.55;1.02;;;;;;;7.37;64.01;96831.22;6245774;23;20024;-75
2023/01/12 08:18:38;;;;;;;5.07;1.13;;;;;;;7.38;63.97;96830.25;6244309;23;20090;-75
2023/01/12 08:21:11;;;;;;;6.20;1.02;;;;;;;7.37;64.04;96841.59;6245735;23;20026;-75
2023/01/12 08:23:42;;;;;;;6.38;1.60;;;;;;;7.37;64.56;96839.81;6245375;23;20326;-75
2023/01/12 08:26:14;;;;;;;2.88;0.93;;;;;;;7.40;65.03;96839.50;6245077;23;20027;-75
2023/01/12 08:28:48;;;;;;;5.82;1.08;;;;;;;7.45;66.66;96835.63;6243839;23;20514;-75
2023/01/12 08:31:18;;;;;;;5.75;1.45;;;;;;;7.48;67.12;96832.69;6245371;23;20020;-75
2023/01/12 08:33:51;;;;;;;4.57;1.10;;;;;;;7.48;66.18;96830.94;6244969;23;20008;-75
2023/01/12 08:36:20;;;;;;;4.10;0.90;;;;;;;7.48;66.77;96830.09;6245333;23;20024;-75
2023/01/12 08:38:48;;;;;;;3.50;1.20;;;;;;;7.47;67.58;96818.09;6243954;23;20020;-76
2023/01/12 08:41:32;;;;;;;7.65;0.90;;;;;;;7.46;65.28;96824.28;6244919;23;20103;-76
2023/01/12 08:44:04;;;;;;;2.80;1.10;;;;;;;7.45;65.90;96823.44;6245071;23;20016;-75
2023/01/12 08:46:34;;;;;;;6.35;1.33;;;;;;;7.43;64.86;96823.63;6245043;23;20024;-75
2023/01/12 08:49:02;;;;;;;4.88;0.70;;;;;;;7.41;65.23;96817.78;6243825;23;20125;-75
2023/01/12 08:51:30;;;;;;;4.10;0.90;;;;;;;7.43;66.75;96821.03;6244829;23;20031;-75
2023/01/12 08:53:57;;;;;;;3.33;0.70;;;;;;;7.46;65.69;96813.91;6244981;23;20091;-75
2023/01/12 08:56:26;;;;;;;6.28;0.88;;;;;;;7.47;65.53;96810.31;6244381;23;20016;-75
2023/01/12 08:58:54;;;;;;;4.25;1.00;;;;;;;7.49;65.29;96808.38;6243815;23;20356;-76
2023/01/12 09:01:22;;;;;;;3.58;0.98;;;;;;;7.53;66.01;96815.69;6244432;23;20024;-75
2023/01/12 09:03:50;;;;;;;7.55;1.20;;;;;;;7.54;65.36;96813.91;6245222;23;20078;-76
2023/01/12 09:06:19;;;;;;;4.38;0.75;;;;;;;7.55;64.91;96820.75;6244793;23;20028;-74
2023/01/12 09:08:47;;;;;;;7.30;1.30;;;;;;;7.55;65.35;96813.75;6243947;23;20397;-75
2023/01/12 09:11:15;;;;;;;1.67;0.65;;;;;;;7.57;65.60;96821.41;6244609;23;20027;-75
2023/01/12 09:13:44;;;;;;;3.92;1.35;;;;;;;7.60;64.66;96814.09;6243650;23;20020;-75
2023/01/12 09:16:14;;;;;;;3.75;0.93;;;;;;;7.62;65.53;96808.75;6244611;23;20020;-75
2023/01/12 09:18:42;;;;;;;2.60;0.60;;;;;;;7.63;64.93;96799.97;6243087;23;20468;-75
2023/01/12 09:21:11;;;;;;;6.57;1.20;;;;;;;7.67;66.05;96809.06;6259477;23;20024;-74
2023/01/12 09:23:39;;;;;;;3.80;0.82;;;;;;;7.69;67.01;96804.53;6259390;23;20055;-75
2023/01/12 09:26:09;;;;;;;4.50;1.35;;;;;;;7.70;66.51;96803.59;6245607;23;20103;-75
2023/01/12 09:28:37;;;;;;;4.60;1.02;;;;;;;7.70;66.29;96800.19;6219556;22;20024;-77
2023/01/12 09:31:09;;;;;;;3.58;1.13;;;;;;;7.71;66.67;96805.19;6212995;23;20021;-76
2023/01/12 09:33:37;;;;;;;5.88;1.25;;;;;;;7.72;66.00;96799.03;6214397;23;20099;-76
2023/01/12 09:36:07;;;;;;;7.20;1.40;;;;;;;7.76;65.00;96802.13;6213859;23;20021;-77
2023/01/12 09:38:35;;;;;;;4.10;0.65;;;;;;;7.78;65.07;96800.19;6232920;23;20031;-78
2023/01/12 09:41:10;;;;;;;2.10;0.60;;;;;;;7.80;65.79;96801.63;6243556;23;20027;-84
2023/01/12 09:49:17;;;;;;;2.28;0.45;;;;;;;7.86;65.88;96839.16;6243458;23;20103;-76
2023/01/12 09:51:51;;;;;;;4.00;0.85;;;;;;;7.89;65.48;96825.03;6243667;23;20388;-76
2023/01/12 09:54:19;;;;;;;4.30;1.40;;;;;;;7.91;66.34;96817.91;6244172;23;20026;-76
2023/01/12 09:56:53;;;;;;;5.15;0.82;;;;;;;7.92;66.24;96837.72;6243903;23;20020;-79
2023/01/12 09:59:37;;;;;;;3.38;0.85;;;;;;;7.95;64.41;96829.59;6243300;23;20444;-78
2023/01/12 10:02:11;;;;;;;4.82;1.23;;;;;;;7.97;66.20;96823.28;6244166;23;20024;-76
2023/01/12 10:04:39;;;;;;;5.82;1.50;;;;;;;8.00;65.12;96822.13;6244192;23;20020;-76
2023/01/12 10:07:13;;;;;;;6.18;2.35;;;;;;;8.03;65.81;96807.06;6244102;23;20027;-76
2023/01/12 10:09:42;;;;;;;7.93;1.25;;;;;;;8.05;65.12;96802.50;6243599;23;20024;-76
2023/01/12 10:12:19;;;;;;;5.07;0.90;;;;;;;8.09;65.17;96810.81;6244272;23;20028;-75
2023/01/12 10:15:16;;;;;;;2.63;0.80;;;;;;;8.12;64.42;96807.06;6244656;23;20020;-75
2023/01/12 10:17:50;;;;;;;2.80;0.68;;;;;;;8.14;65.33;96800.72;6223946;23;20026;-76
2023/01/12 10:20:27;;;;;;;4.55;0.77;;;;;;;8.14;64.30;96816.31;6241764;23;20023;-76
2023/01/12 10:23:00;;;;;;;6.60;1.05;;;;;;;8.16;64.34;96806.59;6243777;23;20555;-76
2023/01/12 10:25:34;;;;;;;2.50;1.08;;;;;;;8.17;65.30;96807.38;6244058;23;20022;-76
2023/01/12 10:28:07;;;;;;;5.88;0.82;;;;;;;8.18;64.48;96809.03;6242999;23;20447;-77
2023/01/12 10:30:38;;;;;;;7.80;1.67;;;;;;;8.20;64.68;96813.09;6239576;23;20043;-78
2023/01/12 10:33:13;;;;;;;3.08;0.95;;;;;;;8.21;65.11;96793.09;6242998;23;20063;-76
2023/01/12 10:35:53;;;;;;;4.90;1.10;;;;;;;8.24;65.12;96817.00;6245362;23;20020;-76
2023/01/12 10:38:27;;;;;;;6.10;0.82;;;;;;;8.24;65.50;96801.41;6242898;23;20031;-75
2023/01/12 10:41:13;;;;;;;6.30;1.50;;;;;;;8.24;65.76;96796.19;6244412;23;20352;-75
2023/01/12 10:43:42;;;;;;;8.02;1.42;;;;;;;8.26;65.22;96796.00;6245008;23;20070;-76
2023/01/12 10:46:13;;;;;;;1.20;0.40;;;;;;;8.28;66.54;96788.06;6244920;23;20020;-76
2023/01/12 10:48:44;;;;;;;3.30;1.15;;;;;;;8.30;65.91;96786.13;6242935;23;20020;-76
2023/01/12 10:51:24;;;;;;;3.20;0.80;;;;;;;8.30;64.48;96766.13;6244087;23;20024;-76
2023/01/12 10:53:56;;;;;;;3.35;0.55;;;;;;;8.31;65.70;96766.94;6243177;23;20026;-77
2023/01/12 10:56:29;;;;;;;2.80;0.82;;;;;;;8.34;66.35;96764.84;6244090;23;20016;-76
2023/01/12 10:59:00;;;;;;;2.83;1.10;;;;;;;8.37;65.42;96776.69;6244747;23;20020;-76
2023/01/12 11:01:43;;;;;;;2.45;0.90;;;;;;;8.38;65.53;96749.72;6246256;23;20020;-77
2023/01/12 11:04:14;;;;;;;;;;;;;;;8.40;65.51;96755.59;6246358;23;20031;-76
2023/01/12 11:06:44;;;;;;;3.97;0.70;;;;;;;8.40;65.83;96755.59;6246826;23;19915;-76
2023/01/12 11:09:19;;;;;;;4.03;1.05;;;;;;;8.42;65.17;96751.88;6244228;23;20020;-76
2023/01/12 11:11:46;;;;;;;3.30;0.75;;;;;;;8.47;67.08;96756.56;6246263;23;20027;-75
2023/01/12 11:14:25;;;;;;;2.65;1.00;;;;;;;8.50;65.23;96761.44;6245805;23;20020;-76
2023/01/12 11:16:53;;;;;;;0.98;0.50;;;;;;;8.55;65.59;96760.94;6246010;23;20024;-76
2023/01/12 11:19:29;;;;;;;1.77;0.65;;;;;;;8.58;65.50;96751.03;6244955;23;20402;-75
2023/01/12 11:22:01;;;;;;;3.85;0.90;;;;;;;8.61;64.61;96753.28;6246132;23;20351;-76
2023/01/12 11:24:36;;;;;;;2.60;0.70;;;;;;;8.64;64.37;96762.56;6242961;23;20020;-75
2023/01/12 11:27:13;;;;;;;6.82;1.13;;;;;;;8.66;64.04;96750.22;6243778;23;20419;-76
2023/01/12 11:29:47;;;;;;;4.32;1.58;;;;;;;8.70;64.17;96745.47;6244150;23;20020;-76
2023/01/12 11:32:19;;;;;;;2.15;0.65;;;;;;;8.72;65.12;96733.91;6244721;23;20034;-77
2023/01/12 11:35:04;;;;;;;2.03;1.05;;;;;;;8.76;65.51;96740.41;6246235;23;20017;-77
2023/01/12 11:37:37;;;;;;;3.20;0.80;;;;;;;8.81;64.94;96732.09;6245247;23;20019;-76
2023/01/12 11:40:15;;;;;;;4.75;0.65;;;;;;;8.85;64.18;96764.63;6244827;23;20471;-76
2023/01/12 11:45:46;;;;;;;1.55;0.60;;;;;;;8.92;62.81;96734.38;6173202;23;20495;-77
2023/01/12 11:48:23;;;;;;;3.10;0.70;;;;;;;8.95;63.95;96739.22;6245105;23;20028;-76
2023/01/12 11:50:53;;;;;;;2.67;0.65;;;;;;;8.96;62.82;96725.22;6245897;23;20020;-76
2023/01/12 11:53:24;;;;;;;2.67;0.70;;;;;;;9.01;62.83;96717.75;6246218;23;20103;-76
2023/01/12 11:56:09;;;;;;;3.38;0.60;;;;;;;9.06;63.50;96730.25;6246214;23;20017;-76
2023/01/12 11:58:45;;;;;;;3.05;0.47;;;;;;;9.07;62.77;96722.28;6245246;23;20021;-78
2023/01/12 12:01:20;;;;;;;2.63;1.17;;;;;;;9.08;63.88;96738.72;6245974;23;20028;-77
2023/01/12 12:03:54;;;;;;;1.40;0.30;;;;;;;9.08;63.01;96723.91;6244558;23;20016;-79
2023/01/12 12:06:55;;;;;;;1.08;0.32;;;;;;;9.11;62.25;96721.94;6246470;23;20024;-76
2023/01/12 12:09:39;;;;;;;1.00;0.63;;;;;;;9.13;62.23;96731.19;6212987;23;20035;-77
2023/01/12 12:12:15;;;;;;;4.57;0.57;;;;;;;9.16;62.87;96727.44;6246420;23;20062;-76
2023/01/12 12:14:58;;;;;;;2.78;0.80;;;;;;;9.19;62.42;96721.91;6245246;23;20102;-78
2023/01/12 12:17:37;;;;;;;1.45;0.35;;;;;;;9.20;62.93;96716.50;6245317;23;20104;-77
2023/01/12 12:20:16;;;;;;;0.98;0.22;;;;;;;9.20;63.20;96710.50;6244349;23;20078;-77
2023/01/12 12:22:59;;;;;;;0.60;0.40;;;;;;;9.19;62.49;96701.09;6244900;23;20055;-77
2023/01/12 12:25:38;;;;;;;2.90;0.70;;;;;;;9.19;62.29;96698.47;6245068;23;20020;-77
2023/01/12 12:28:20;;;;;;;1.83;0.40;;;;;;;9.20;63.23;96679.28;6244820;23;20020;-77
2023/01/12 12:31:08;;;;;;;1.92;0.50;;;;;;;9.18;62.27;96686.44;6245953;23;20502;-76
2023/01/12 12:33:59;;;;;;;1.30;0.52;;;;;;;9.19;63.57;96691.47;6245501;23;20024;-77
2023/01/12 12:36:34;;;;;;;1.10;0.40;;;;;;;9.21;62.21;96688.72;6245034;23;20100;-76
2023/01/12 12:39:38;;;;;;;0.95;0.40;;;;;;;9.23;61.97;96690.16;6243493;23;20468;-76
2023/01/12 12:45:17;;;;;;;0.95;0.30;;;;;;;9.26;62.62;96676.00;6244698;23;20020;-77